Weather at Canyonlands Field

Public forecast

Using degrees Fahrenheit for public forecast. Weather courtesy of forecast.io.

Current aviation weather report (METAR) for Canyonlands Field

Retrieved 2020/12/02 17:53 UTC (23 minutes ago):

KCNY 021753Z AUTO 05020G28KT 10SM CLR 04/M12 A3040 RMK AO2 PK WND 04028/1746 SLP309 T00391122 10039 21094 51020

Aviation forecast (TAF) for Canyonlands Field

Retrieved 2020/12/02 18:24 UTC (0 seconds ago):

TAF KCNY 021723Z 0218/0318 05016G26KT P6SM FEW080 SCT120 FM022300 34012KT P6SM FEW120 FEW250 FM030500 VRB03KT P6SM SKC